createdAt,value
2022-09-04T00:01:46.501Z,18.35
2022-09-04T00:04:22.019Z,19.52
2022-09-04T00:06:59.988Z,18.70
2022-09-04T00:09:55.684Z,18.55
2022-09-04T00:12:29.127Z,17.95
2022-09-04T00:15:19.380Z,18.33
2022-09-04T00:17:58.320Z,19.45
2022-09-04T00:20:51.316Z,19.23
2022-09-04T00:23:32.296Z,19.63
2022-09-04T00:26:01.997Z,19.15
2022-09-04T00:28:37.552Z,18.83
2022-09-04T00:31:28.948Z,19.67
2022-09-04T00:34:19.972Z,18.48
2022-09-04T00:36:51.493Z,18.98
2022-09-04T00:39:34.439Z,18.55
2022-09-04T00:42:27.434Z,19.52
2022-09-04T00:45:35.100Z,19.67
2022-09-04T00:48:31.783Z,19.52
2022-09-04T00:51:16.670Z,19.40
2022-09-04T00:54:18.165Z,18.52
2022-09-04T00:57:27.248Z,18.45
2022-09-04T01:00:08.821Z,18.90
2022-09-04T01:03:03.871Z,18.45
2022-09-04T01:05:47.799Z,17.87
2022-09-04T01:08:40.584Z,18.38
2022-09-04T01:11:32.057Z,18.52
2022-09-04T01:14:09.973Z,18.95
2022-09-04T01:16:52.921Z,17.73
2022-09-04T01:19:50.514Z,18.08
2022-09-04T01:22:36.415Z,18.63
2022-09-04T01:25:53.500Z,17.67
2022-09-04T01:28:48.047Z,17.08
2022-09-04T01:31:26.409Z,17.63
2022-09-04T01:34:25.760Z,18.25
2022-09-04T01:37:41.567Z,18.92
2022-09-04T01:40:45.266Z,17.87
2022-09-04T01:43:17.523Z,18.08
2022-09-04T01:46:09.180Z,18.10
2022-09-04T01:48:50.864Z,17.65
2022-09-04T01:51:17.547Z,17.23
2022-09-04T01:53:49.612Z,16.73
2022-09-04T01:56:34.222Z,17.23
2022-09-04T01:59:11.767Z,16.27
2022-09-04T02:02:04.442Z,17.20
2022-09-04T02:04:45.561Z,17.95
2022-09-04T02:07:38.355Z,17.55
2022-09-04T02:10:08.270Z,17.52
2022-09-04T02:12:50.874Z,17.83
2022-09-04T02:15:42.982Z,17.75
2022-09-04T02:18:15.526Z,17.40
2022-09-04T02:20:52.391Z,17.40
2022-09-04T02:23:30.086Z,18.15
2022-09-04T02:26:25.922Z,18.02
2022-09-04T02:29:15.948Z,18.40
2022-09-04T02:32:06.611Z,18.48
2022-09-04T02:34:52.815Z,18.10
2022-09-04T02:37:25.645Z,18.38
2022-09-04T02:40:07.928Z,18.55
2022-09-04T02:43:19.234Z,18.75
2022-09-04T02:46:04.144Z,19.08
2022-09-04T02:48:58.000Z,18.05
2022-09-04T02:51:43.679Z,17.73
2022-09-04T02:54:29.847Z,17.20
2022-09-04T02:57:21.571Z,18.30
2022-09-04T02:59:54.487Z,18.55
2022-09-04T03:02:30.122Z,19.00
2022-09-04T03:05:06.770Z,19.02
2022-09-04T03:07:41.004Z,19.60
2022-09-04T03:10:28.781Z,18.77
2022-09-04T03:13:07.073Z,19.83
2022-09-04T03:15:43.874Z,20.20
2022-09-04T03:18:48.158Z,19.42
2022-09-04T03:21:24.282Z,18.95
2022-09-04T03:23:58.647Z,18.65
2022-09-04T03:26:31.331Z,19.15
2022-09-04T03:29:21.907Z,18.25
2022-09-04T03:32:15.501Z,18.73
2022-09-04T03:35:07.391Z,19.08
2022-09-04T03:37:45.996Z,18.55
2022-09-04T03:40:31.507Z,18.67
2022-09-04T03:46:00.252Z,19.55
2022-09-04T03:48:36.736Z,19.45
2022-09-04T03:51:31.520Z,19.25
2022-09-04T03:54:16.368Z,19.25
2022-09-04T03:56:58.927Z,19.27
2022-09-04T03:59:34.656Z,19.30
2022-09-04T04:02:25.467Z,19.15
2022-09-04T04:05:12.521Z,18.60
2022-09-04T04:08:17.587Z,19.60
2022-09-04T04:10:56.873Z,18.92
2022-09-04T04:13:37.340Z,18.88
2022-09-04T04:16:31.083Z,19.05
2022-09-04T04:19:23.886Z,18.85
2022-09-04T04:22:08.422Z,18.58
2022-09-04T04:25:02.843Z,17.93
2022-09-04T04:27:49.796Z,18.33
2022-09-04T04:30:17.710Z,17.05
2022-09-04T04:33:22.497Z,17.83
2022-09-04T04:36:05.946Z,17.75
2022-09-04T04:38:56.620Z,18.38
2022-09-04T04:42:06.945Z,17.80
2022-09-04T04:45:18.240Z,18.60
2022-09-04T04:47:54.285Z,18.25
2022-09-04T04:50:32.909Z,17.70
2022-09-04T04:53:14.468Z,17.77
2022-09-04T04:56:15.400Z,20.75
2022-09-04T04:59:09.414Z,20.33
2022-09-04T05:01:49.031Z,19.90
2022-09-04T05:04:51.635Z,19.67
2022-09-04T05:07:36.987Z,20.23
2022-09-04T05:10:25.259Z,18.88
2022-09-04T05:13:21.127Z,20.88
2022-09-04T05:19:07.279Z,19.17
2022-09-04T05:21:39.351Z,20.38
2022-09-04T05:24:19.875Z,20.20
2022-09-04T05:26:55.430Z,20.98
2022-09-04T05:29:39.607Z,20.40
2022-09-04T05:32:29.273Z,20.33
2022-09-04T05:35:14.291Z,21.48
2022-09-04T05:38:06.064Z,20.60
2022-09-04T05:41:10.633Z,21.05
2022-09-04T05:44:02.278Z,21.27
2022-09-04T05:47:00.034Z,20.65
2022-09-04T05:49:55.603Z,21.25
2022-09-04T05:52:46.992Z,20.48
2022-09-04T05:55:32.063Z,19.65
2022-09-04T05:58:10.931Z,20.38
2022-09-04T06:00:52.284Z,20.75
2022-09-04T06:03:47.144Z,21.00
2022-09-04T06:06:16.870Z,21.70
2022-09-04T06:09:01.784Z,20.02
2022-09-04T06:11:51.618Z,20.02
2022-09-04T06:14:56.846Z,19.80
2022-09-04T06:17:34.613Z,20.20
2022-09-04T06:20:24.290Z,20.02
2022-09-04T06:23:12.689Z,20.00
2022-09-04T06:25:48.327Z,19.75
2022-09-04T06:28:26.939Z,20.27
2022-09-04T06:30:59.337Z,20.58
2022-09-04T06:33:47.606Z,19.73
2022-09-04T06:36:36.234Z,21.17
2022-09-04T06:39:05.627Z,21.15
2022-09-04T06:41:51.999Z,20.77
2022-09-04T06:44:33.982Z,20.95
2022-09-04T06:47:22.175Z,20.25
2022-09-04T06:50:11.535Z,21.08
2022-09-04T06:53:04.120Z,19.98
2022-09-04T06:55:47.846Z,21.38
2022-09-04T06:58:52.498Z,21.33
2022-09-04T07:01:50.205Z,21.17
2022-09-04T07:04:49.385Z,20.02
2022-09-04T07:07:26.979Z,20.65
2022-09-04T07:10:10.604Z,20.30
2022-09-04T07:12:52.466Z,20.20
2022-09-04T07:15:48.535Z,19.85
2022-09-04T07:18:34.445Z,20.90
2022-09-04T07:21:48.585Z,20.58
2022-09-04T07:24:56.713Z,20.55
2022-09-04T07:27:52.715Z,20.63
2022-09-04T07:30:20.336Z,20.48
2022-09-04T07:33:01.330Z,20.55
2022-09-04T07:35:38.187Z,19.88
2022-09-04T07:38:24.398Z,20.05
2022-09-04T07:41:19.962Z,19.55
2022-09-04T07:43:55.095Z,20.02
2022-09-04T07:46:44.560Z,19.98
2022-09-04T07:49:31.976Z,22.33
2022-09-04T07:52:10.154Z,21.50
2022-09-04T07:54:39.678Z,22.38
2022-09-04T07:57:09.393Z,22.35
2022-09-04T08:00:08.269Z,20.98
2022-09-04T08:03:11.945Z,22.58
2022-09-04T08:05:49.130Z,22.40
2022-09-04T08:08:37.516Z,22.80
2022-09-04T08:11:45.451Z,22.88
2022-09-04T08:14:22.335Z,22.75
2022-09-04T08:17:25.223Z,22.98
2022-09-04T08:19:51.964Z,22.58
2022-09-04T08:22:42.829Z,23.08
2022-09-04T08:25:09.512Z,23.17
2022-09-04T08:27:36.180Z,23.20
2022-09-04T08:33:10.109Z,23.58
2022-09-04T08:36:01.667Z,23.20
2022-09-04T08:38:46.571Z,23.08
2022-09-04T08:41:36.052Z,23.60
2022-09-04T08:44:27.056Z,23.40
2022-09-04T08:46:54.289Z,22.35
2022-09-04T08:49:37.108Z,23.52
2022-09-04T08:52:41.807Z,23.70
2022-09-04T08:55:27.872Z,23.13
2022-09-04T08:58:31.789Z,23.20
2022-09-04T09:01:23.160Z,22.20
2022-09-04T09:04:12.556Z,23.13
2022-09-04T09:07:30.062Z,23.58
2022-09-04T09:10:21.421Z,22.30
2022-09-04T09:13:03.330Z,22.17
2022-09-04T09:15:52.386Z,23.88
2022-09-04T09:18:41.461Z,24.08
2022-09-04T09:21:10.127Z,22.73
2022-09-04T09:23:50.963Z,23.80
2022-09-04T09:26:33.362Z,23.38
2022-09-04T09:29:24.314Z,24.08
2022-09-04T09:32:31.227Z,24.13
2022-09-04T09:35:22.697Z,24.77
2022-09-04T09:38:29.618Z,24.27
2022-09-04T09:41:19.975Z,24.50
2022-09-04T09:44:07.936Z,24.02
2022-09-04T09:46:50.452Z,24.40
2022-09-04T09:49:23.080Z,24.25
2022-09-04T09:52:11.196Z,24.20
2022-09-04T09:55:13.194Z,25.08
2022-09-04T09:58:04.750Z,25.70
2022-09-04T10:01:08.449Z,25.58
2022-09-04T10:03:59.242Z,25.55
2022-09-04T10:06:48.582Z,25.35
2022-09-04T10:09:49.338Z,25.05
2022-09-04T10:12:25.197Z,24.60
2022-09-04T10:15:38.978Z,25.73
2022-09-04T10:18:43.255Z,25.75
2022-09-04T10:21:12.901Z,26.27
2022-09-04T10:24:18.414Z,25.80
2022-09-04T10:27:09.588Z,26.47
2022-09-04T10:30:07.781Z,25.52
2022-09-04T10:32:56.352Z,25.27
2022-09-04T10:35:27.710Z,25.00
2022-09-04T10:38:04.741Z,25.23
2022-09-04T10:41:02.243Z,25.00
2022-09-04T10:43:45.528Z,24.85
2022-09-04T10:46:28.677Z,25.92
2022-09-04T10:49:30.433Z,25.42
2022-09-04T10:52:20.061Z,25.02
2022-09-04T10:54:54.189Z,24.98
2022-09-04T10:57:42.895Z,25.60
2022-09-04T11:00:19.583Z,25.23
2022-09-04T11:03:03.259Z,25.83
2022-09-04T11:05:55.324Z,26.63
2022-09-04T11:09:00.541Z,27.17
2022-09-04T11:12:03.727Z,25.60
2022-09-04T11:14:49.960Z,25.23
2022-09-04T11:17:25.655Z,24.83
2022-09-04T11:20:17.554Z,24.58
2022-09-04T11:23:04.990Z,24.95
2022-09-04T11:26:05.658Z,24.05
2022-09-04T11:28:57.261Z,25.83
2022-09-04T11:31:46.799Z,26.90
2022-09-04T11:34:38.965Z,25.38
2022-09-04T11:37:31.033Z,24.92
2022-09-04T11:40:12.930Z,25.88
2022-09-04T11:42:44.498Z,25.55
2022-09-04T11:45:41.404Z,24.80
2022-09-04T11:48:45.976Z,26.75
2022-09-04T11:51:16.400Z,29.00
2022-09-04T11:54:28.476Z,24.55
2022-09-04T11:57:13.761Z,26.25
2022-09-04T12:00:13.156Z,24.13
2022-09-04T12:03:17.216Z,23.65
2022-09-04T12:06:28.344Z,27.70
2022-09-04T12:09:14.762Z,25.80
2022-09-04T12:11:50.909Z,28.52
2022-09-04T12:14:31.423Z,28.58
2022-09-04T12:17:15.403Z,29.60
2022-09-04T12:20:28.766Z,29.27
2022-09-04T12:23:18.913Z,29.33
2022-09-04T12:26:05.312Z,28.35
2022-09-04T12:28:59.483Z,31.67
2022-09-04T12:31:51.733Z,30.45
2022-09-04T12:34:36.745Z,30.77
2022-09-04T12:37:27.865Z,30.90
2022-09-04T12:40:13.207Z,29.63
2022-09-04T12:43:27.676Z,30.42
2022-09-04T12:46:21.803Z,28.05
2022-09-04T12:49:27.271Z,26.88
2022-09-04T12:52:07.236Z,30.00
2022-09-04T12:55:09.968Z,27.88
2022-09-04T12:58:13.350Z,28.73
2022-09-04T13:00:55.835Z,28.02
2022-09-04T13:03:34.604Z,28.10
2022-09-04T13:06:07.487Z,29.60
2022-09-04T13:09:02.158Z,30.92
2022-09-04T13:11:38.319Z,28.42
2022-09-04T13:14:26.738Z,29.05
2022-09-04T13:17:11.848Z,29.02
2022-09-04T13:19:52.391Z,28.95
2022-09-04T13:22:26.493Z,29.60
2022-09-04T13:25:04.928Z,31.35
2022-09-04T13:27:49.810Z,30.17
2022-09-04T13:30:24.623Z,28.38
2022-09-04T13:33:11.206Z,30.08
2022-09-04T13:36:09.447Z,29.50
2022-09-04T13:38:55.202Z,28.75
2022-09-04T13:41:59.563Z,27.77
2022-09-04T13:44:56.751Z,26.25
2022-09-04T13:47:45.155Z,30.83
2022-09-04T13:50:27.586Z,29.55
2022-09-04T13:53:05.894Z,29.38
2022-09-04T13:55:39.856Z,29.95
2022-09-04T13:58:16.781Z,29.40
2022-09-04T14:00:51.600Z,28.05
2022-09-04T14:03:41.586Z,29.48
2022-09-04T14:06:14.701Z,28.30
2022-09-04T14:08:43.761Z,27.83
2022-09-04T14:11:48.864Z,27.67
2022-09-04T14:14:25.621Z,25.87
2022-09-04T14:16:55.303Z,25.50
2022-09-04T14:19:52.715Z,27.30
2022-09-04T14:22:46.437Z,27.92
2022-09-04T14:25:51.002Z,26.38
2022-09-04T14:28:38.516Z,24.27
2022-09-04T14:31:17.892Z,24.98
2022-09-04T14:34:17.038Z,29.10
2022-09-04T14:36:59.749Z,26.20
2022-09-04T14:39:40.130Z,26.13
2022-09-04T14:42:42.584Z,26.95
2022-09-04T14:45:35.732Z,25.17
2022-09-04T14:48:11.818Z,25.98
2022-09-04T14:50:53.577Z,28.25
2022-09-04T14:53:28.306Z,27.55
2022-09-04T14:56:07.486Z,26.92
2022-09-04T14:58:41.483Z,28.15
2022-09-04T15:01:21.978Z,28.15
2022-09-04T15:04:16.045Z,28.48
2022-09-04T15:07:10.287Z,28.92
2022-09-04T15:09:40.985Z,27.13
2022-09-04T15:12:25.620Z,27.85
2022-09-04T15:15:02.312Z,26.08
2022-09-04T15:17:30.747Z,27.45
2022-09-04T15:20:06.203Z,29.15
2022-09-04T15:22:55.749Z,28.58
2022-09-04T15:25:56.774Z,29.45
2022-09-04T15:28:34.469Z,30.08
2022-09-04T15:31:16.443Z,30.55
2022-09-04T15:33:45.300Z,29.23
2022-09-04T15:36:23.934Z,28.00
2022-09-04T15:38:59.670Z,28.38
2022-09-04T15:41:38.719Z,27.42
2022-09-04T15:44:17.340Z,27.92
2022-09-04T15:47:07.243Z,28.67
2022-09-04T15:49:43.034Z,29.08
2022-09-04T15:52:15.567Z,28.02
2022-09-04T15:54:43.080Z,28.15
2022-09-04T15:57:24.895Z,26.98
2022-09-04T16:00:11.572Z,29.80
2022-09-04T16:02:54.701Z,30.58
2022-09-04T16:05:51.353Z,31.15
2022-09-04T16:08:44.314Z,32.20
2022-09-04T16:11:36.540Z,30.77
2022-09-04T16:14:06.831Z,31.52
2022-09-04T16:16:45.173Z,30.65
2022-09-04T16:19:15.185Z,32.83
2022-09-04T16:22:04.989Z,30.58
2022-09-04T16:24:44.236Z,29.98
2022-09-04T16:27:20.316Z,27.42
2022-09-04T16:30:02.849Z,25.25
2022-09-04T16:32:35.440Z,28.48
2022-09-04T16:35:09.138Z,26.75
2022-09-04T16:37:51.367Z,26.67
2022-09-04T16:40:36.921Z,26.98
2022-09-04T16:43:16.326Z,25.67
2022-09-04T16:46:09.655Z,26.30
2022-09-04T16:49:07.337Z,25.35
2022-09-04T16:51:42.134Z,25.08
2022-09-04T16:56:49.669Z,25.38
2022-09-04T16:59:31.695Z,24.83
2022-09-04T17:02:21.391Z,24.42
2022-09-04T17:04:54.539Z,24.33
2022-09-04T17:07:31.025Z,24.50
2022-09-04T17:10:19.616Z,24.80
2022-09-04T17:12:52.474Z,23.85
2022-09-04T17:15:53.408Z,23.88
2022-09-04T17:18:23.411Z,24.23
2022-09-04T17:22:49.979Z,24.48
2022-09-04T17:29:00.321Z,24.98
2022-09-04T17:29:16.514Z,23.50
2022-09-04T17:29:54.738Z,23.38
2022-09-04T17:36:32.822Z,23.48
2022-09-04T17:40:37.664Z,23.58
2022-09-04T17:40:49.730Z,19.08
2022-09-04T17:41:47.371Z,19.60
2022-09-04T17:44:43.220Z,20.20
2022-09-04T17:47:43.198Z,21.15
2022-09-04T17:50:16.862Z,20.50
2022-09-04T17:53:14.635Z,20.58
2022-09-04T17:56:17.678Z,21.80
2022-09-04T17:59:13.945Z,20.80
2022-09-04T18:01:51.495Z,22.05
2022-09-04T18:04:40.005Z,21.75
2022-09-04T18:08:08.566Z,24.10
2022-09-04T18:10:34.037Z,21.33
2022-09-04T18:13:37.666Z,21.40
2022-09-04T18:16:30.871Z,20.88
2022-09-04T18:19:25.788Z,21.85
2022-09-04T18:22:24.998Z,21.20
2022-09-04T18:25:16.654Z,21.30
2022-09-04T18:28:12.298Z,21.75
2022-09-04T18:37:07.652Z,22.55
2022-09-04T18:37:23.989Z,22.00
2022-09-04T18:37:46.020Z,21.05
2022-09-04T18:41:22.204Z,20.42
2022-09-04T18:50:25.844Z,19.95
2022-09-04T18:50:35.603Z,19.48
2022-09-04T18:50:49.355Z,17.88
2022-09-04T18:52:03.478Z,18.40
2022-09-04T18:54:41.555Z,18.08
2022-09-04T18:57:32.220Z,17.85
2022-09-04T19:11:40.526Z,19.38
2022-09-04T19:14:38.670Z,18.88
2022-09-04T19:17:37.146Z,19.10
2022-09-04T19:20:10.156Z,19.05
2022-09-04T19:22:48.066Z,19.38
2022-09-04T19:25:22.538Z,18.52
2022-09-04T19:28:02.068Z,18.73
2022-09-04T19:30:35.978Z,18.27
2022-09-04T19:33:22.193Z,18.08
2022-09-04T19:36:00.657Z,18.95
2022-09-04T19:45:55.600Z,17.98
2022-09-04T19:46:04.421Z,19.23
2022-09-04T19:46:17.545Z,19.10
2022-09-04T19:47:27.614Z,19.30
2022-09-04T19:53:18.395Z,19.75
2022-09-04T19:53:36.279Z,19.13
2022-09-04T19:55:46.697Z,18.63
2022-09-04T19:58:13.408Z,19.42
2022-09-04T20:00:56.212Z,18.88
2022-09-04T20:03:29.271Z,19.13
2022-09-04T20:06:36.354Z,19.10
2022-09-04T20:09:38.634Z,20.15
2022-09-04T20:12:25.429Z,19.40
2022-09-04T20:15:02.049Z,19.08
2022-09-04T20:17:42.037Z,18.52
2022-09-04T20:20:24.502Z,19.58
2022-09-04T20:23:34.569Z,20.33
2022-09-04T20:26:00.374Z,20.50
2022-09-04T20:28:55.158Z,20.15
2022-09-04T20:31:35.538Z,20.95
2022-09-04T20:34:18.994Z,20.80
2022-09-04T20:36:51.792Z,20.20
2022-09-04T20:39:27.649Z,21.30
2022-09-04T20:41:58.797Z,24.00
2022-09-04T20:44:42.719Z,22.85
2022-09-04T20:52:45.423Z,21.65
2022-09-04T20:53:00.035Z,21.25
2022-09-04T20:53:30.718Z,21.63
2022-09-04T20:57:18.416Z,19.95
2022-09-04T21:03:09.649Z,20.23
2022-09-04T21:03:20.092Z,19.73
2022-09-04T21:06:07.750Z,18.58
2022-09-04T21:09:16.213Z,19.90
2022-09-04T21:12:11.498Z,23.88
2022-09-04T21:14:45.361Z,45.17
2022-09-04T21:17:35.128Z,40.35
2022-09-04T21:20:59.467Z,29.23
2022-09-04T21:23:46.300Z,27.48
2022-09-04T21:26:37.217Z,21.63
2022-09-04T21:29:12.800Z,21.85
2022-09-04T21:31:57.393Z,22.65
2022-09-04T21:34:43.479Z,22.67
2022-09-04T21:37:34.995Z,35.38
2022-09-04T21:40:49.713Z,33.47
2022-09-04T21:43:35.715Z,26.13
2022-09-04T21:46:21.456Z,24.13
2022-09-04T21:51:29.448Z,21.73
2022-09-04T21:53:59.012Z,21.55
2022-09-04T22:01:52.489Z,21.42
2022-09-04T22:02:39.550Z,21.85
2022-09-04T22:02:54.477Z,23.75
2022-09-04T22:05:47.670Z,22.13
2022-09-04T22:13:34.973Z,21.50
2022-09-04T22:13:39.967Z,22.60
2022-09-04T22:14:37.676Z,21.58
2022-09-04T22:17:13.369Z,22.20
2022-09-04T22:20:15.531Z,22.42
2022-09-04T22:23:20.084Z,22.23
2022-09-04T22:25:47.128Z,21.73
2022-09-04T22:28:22.915Z,21.67
2022-09-04T22:31:07.832Z,22.13
2022-09-04T22:34:15.678Z,22.70
2022-09-04T22:37:11.909Z,22.92
2022-09-04T22:40:17.610Z,22.90
2022-09-04T22:42:50.124Z,23.75
2022-09-04T22:45:47.416Z,23.23
2022-09-04T22:48:29.500Z,23.05
2022-09-04T22:51:02.132Z,23.23
2022-09-04T22:53:53.912Z,22.95
2022-09-04T22:56:47.905Z,23.40
2022-09-04T22:59:33.354Z,23.70
2022-09-04T23:05:06.516Z,22.75
2022-09-04T23:13:22.047Z,22.77
2022-09-04T23:13:51.501Z,23.10
2022-09-04T23:14:06.555Z,23.33
2022-09-04T23:16:36.996Z,22.98
2022-09-04T23:24:34.348Z,22.75
2022-09-04T23:26:45.336Z,22.52
2022-09-04T23:26:46.040Z,22.30
2022-09-04T23:28:27.062Z,22.20
2022-09-04T23:31:27.274Z,22.50
2022-09-04T23:34:26.871Z,22.65
2022-09-04T23:37:08.147Z,22.38
2022-09-04T23:39:56.320Z,22.13
2022-09-04T23:42:37.051Z,21.35
2022-09-04T23:45:56.567Z,21.55
2022-09-04T23:48:43.418Z,21.77
2022-09-04T23:51:30.584Z,21.70
2022-09-04T23:54:24.923Z,22.42
2022-09-04T23:57:08.083Z,22.60
